Time;durP1;ratioP1;P1;durP2;ratioP2;P2;SDS_P1;SDS_P2;PMS_P1;PMS_P2;Temp;Humidity;BMP_temperature;BMP_pressure;BME280_temperature;BME280_humidity;BME280_pressure;Samples;Min_cycle;Max_cycle;Signal;HPM_P1;HPM_P2
2022/10/07 00:00:11;;;;;;;13.40;4.70;;;12.20;99.90;;;;;;5062480;28;20226;-34
2022/10/07 00:02:39;;;;;;;10.20;5.20;;;12.20;99.90;;;;;;5061941;28;20253;-35
2022/10/07 00:05:07;;;;;;;14.37;5.30;;;12.20;99.90;;;;;;5062732;28;20295;-35
2022/10/07 00:07:36;;;;;;;10.50;4.77;;;12.20;99.90;;;;;;5061954;28;20579;-34
2022/10/07 00:10:05;;;;;;;13.97;4.83;;;12.20;99.90;;;;;;5062681;28;20216;-35
2022/10/07 00:12:32;;;;;;;12.97;4.60;;;12.20;99.90;;;;;;5061796;28;20364;-35
2022/10/07 00:14:59;;;;;;;13.32;5.50;;;12.10;99.90;;;;;;5061242;28;20386;-36
2022/10/07 00:17:26;;;;;;;13.30;5.47;;;12.40;99.90;;;;;;5061872;28;20222;-34
2022/10/07 00:19:55;;;;;;;13.00;5.00;;;12.30;99.90;;;;;;5062395;28;20215;-35
2022/10/07 00:22:22;;;;;;;12.10;4.60;;;12.30;99.90;;;;;;5062386;28;20200;-34
2022/10/07 00:24:52;;;;;;;11.20;4.80;;;12.20;99.90;;;;;;5046047;28;21067;-35
2022/10/07 00:27:19;;;;;;;12.73;4.90;;;12.20;99.90;;;;;;5058253;28;20210;-35
2022/10/07 00:29:46;;;;;;;12.17;5.47;;;12.20;99.90;;;;;;5063691;28;20257;-35
2022/10/07 00:32:16;;;;;;;15.57;5.30;;;12.20;99.90;;;;;;5064649;28;20563;-35
2022/10/07 00:34:43;;;;;;;13.67;5.03;;;12.20;99.90;;;;;;5061860;28;20223;-35
2022/10/07 00:37:11;;;;;;;10.13;4.57;;;12.10;99.90;;;;;;5066554;28;20203;-36
2022/10/07 00:39:38;;;;;;;11.73;4.97;;;12.10;99.90;;;;;;5067568;28;20783;-35
2022/10/07 00:42:07;;;;;;;13.03;4.83;;;12.10;99.90;;;;;;5068761;28;20204;-35
2022/10/07 00:44:37;;;;;;;11.47;4.57;;;12.10;99.90;;;;;;5068270;28;20211;-34
2022/10/07 00:47:18;;;;;;;11.17;4.70;;;12.00;99.90;;;;;;5066698;28;20303;-34
2022/10/07 00:50:24;;;;;;;10.47;4.67;;;12.00;99.90;;;;;;5069369;28;20214;-35
2022/10/07 00:52:56;;;;;;;12.77;4.67;;;12.00;99.90;;;;;;5068911;28;20199;-36
2022/10/07 00:55:25;;;;;;;10.13;5.10;;;11.90;99.90;;;;;;5069669;28;20190;-34
2022/10/07 00:57:56;;;;;;;15.10;4.70;;;11.90;99.90;;;;;;5062381;28;20584;-35
2022/10/07 01:00:23;;;;;;;10.70;5.40;;;11.90;99.90;;;;;;5049318;28;20564;-35
2022/10/07 01:02:55;;;;;;;10.23;4.83;;;11.90;99.90;;;;;;5048104;28;20802;-35
2022/10/07 01:05:22;;;;;;;10.60;4.70;;;11.90;99.90;;;;;;5049213;28;20200;-34
2022/10/07 01:07:50;;;;;;;10.07;4.37;;;11.80;99.90;;;;;;5061915;28;20204;-36
2022/10/07 01:10:20;;;;;;;11.00;4.73;;;11.80;99.90;;;;;;5048222;28;20251;-35
2022/10/07 01:13:16;;;;;;;13.13;5.20;;;11.80;99.90;;;;;;5063118;28;20224;-35
2022/10/07 01:16:08;;;;;;;10.00;4.20;;;11.80;99.90;;;;;;5048326;28;20197;-35
2022/10/07 01:19:11;;;;;;;10.23;4.63;;;11.70;99.90;;;;;;5048635;28;20550;-34
2022/10/07 01:22:18;;;;;;;11.43;5.23;;;11.70;99.90;;;;;;5047959;28;20306;-34
2022/10/07 01:24:51;;;;;;;15.03;4.93;;;11.60;99.90;;;;;;5059896;28;20293;-34
2022/10/07 01:27:22;;;;;;;11.40;4.80;;;11.60;99.90;;;;;;5052888;28;20237;-34
2022/10/07 01:30:06;;;;;;;13.13;5.13;;;11.60;99.90;;;;;;5055185;28;20200;-35
2022/10/07 01:32:37;;;;;;;11.27;5.10;;;11.60;99.90;;;;;;5048248;28;20291;-35
2022/10/07 01:35:10;;;;;;;13.00;4.80;;;11.50;99.90;;;;;;5049117;28;20195;-34
2022/10/07 01:37:43;;;;;;;9.70;4.70;;;11.50;99.90;;;;;;5049200;28;20246;-35
2022/10/07 01:40:28;;;;;;;11.30;4.60;;;11.50;99.90;;;;;;5049118;28;20235;-35
2022/10/07 01:42:56;;;;;;;14.93;4.37;;;11.50;99.90;;;;;;5067038;28;20274;-34
2022/10/07 01:45:27;;;;;;;12.33;4.37;;;11.50;99.90;;;;;;5068688;28;20208;-34
2022/10/07 01:47:55;;;;;;;13.07;4.90;;;11.50;99.90;;;;;;5068047;28;20200;-35
2022/10/07 01:50:26;;;;;;;15.07;4.73;;;11.50;99.90;;;;;;5066740;28;20226;-35
2022/10/07 01:53:25;;;;;;;13.40;5.30;;;11.40;99.90;;;;;;5064795;28;20212;-34
2022/10/07 01:56:09;;;;;;;9.13;4.80;;;11.40;99.90;;;;;;5065625;28;20195;-36
2022/10/07 01:58:39;;;;;;;12.87;5.20;;;11.40;99.90;;;;;;5067162;28;20195;-35
2022/10/07 02:01:21;;;;;;;9.37;4.57;;;11.30;99.90;;;;;;5068141;28;20226;-35
2022/10/07 02:04:29;;;;;;;11.40;5.20;;;11.30;99.90;;;;;;5067693;28;20634;-35
2022/10/07 02:07:02;;;;;;;14.47;4.67;;;11.30;99.90;;;;;;5068331;28;20187;-34
2022/10/07 02:09:49;;;;;;;12.47;4.57;;;11.30;99.90;;;;;;5068036;28;20247;-36
2022/10/07 02:12:26;;;;;;;11.67;4.33;;;11.30;99.90;;;;;;5067639;28;20664;-36
2022/10/07 02:15:02;;;;;;;12.13;4.00;;;11.20;99.90;;;;;;5068292;28;20228;-36
2022/10/07 02:17:34;;;;;;;11.43;4.20;;;11.20;99.90;;;;;;5076566;28;20274;-36
2022/10/07 02:20:06;;;;;;;9.97;4.17;;;11.20;99.90;;;;;;5068335;28;20680;-37
2022/10/07 02:22:34;;;;;;;9.60;4.50;;;11.20;99.90;;;;;;5067645;28;20195;-36
2022/10/07 02:25:02;;;;;;;13.57;4.33;;;11.20;99.90;;;;;;5067988;28;20294;-37
2022/10/07 02:27:34;;;;;;;8.50;4.10;;;11.20;99.90;;;;;;5066513;28;20211;-36
2022/10/07 02:30:12;;;;;;;11.57;4.80;;;11.20;99.90;;;;;;5068097;28;20299;-37
2022/10/07 02:32:49;;;;;;;11.60;4.67;;;11.20;99.90;;;;;;5067067;28;20210;-36
2022/10/07 02:35:30;;;;;;;8.73;4.10;;;11.10;99.90;;;;;;5067473;28;20211;-36
2022/10/07 02:38:01;;;;;;;14.27;4.80;;;11.10;99.90;;;;;;5067238;28;20701;-37
2022/10/07 02:40:39;;;;;;;13.20;4.47;;;11.10;99.90;;;;;;5067960;28;20551;-37
2022/10/07 02:43:58;;;;;;;12.40;4.83;;;11.10;99.90;;;;;;5067077;28;20199;-36
2022/10/07 02:46:30;;;;;;;10.27;4.70;;;11.10;99.90;;;;;;5067303;28;20216;-37
2022/10/07 02:49:05;;;;;;;10.13;4.77;;;11.10;99.90;;;;;;5067311;28;20428;-36
2022/10/07 02:51:37;;;;;;;10.80;4.30;;;11.10;99.90;;;;;;5067367;28;20227;-36
2022/10/07 02:54:05;;;;;;;12.87;4.63;;;11.00;99.90;;;;;;5066140;28;20203;-37
2022/10/07 02:56:39;;;;;;;9.93;4.87;;;11.00;99.90;;;;;;5067163;28;20191;-37
2022/10/07 02:59:08;;;;;;;12.93;4.63;;;11.00;99.90;;;;;;5065926;28;20745;-37
2022/10/07 03:01:44;;;;;;;15.43;4.77;;;11.00;99.90;;;;;;5064293;28;20214;-35
2022/10/07 03:04:12;;;;;;;8.10;4.17;;;11.00;99.90;;;;;;5052616;28;20222;-35
2022/10/07 03:06:41;;;;;;;12.37;4.83;;;10.90;99.90;;;;;;5064722;28;20232;-35
2022/10/07 03:09:09;;;;;;;10.03;5.17;;;10.90;99.90;;;;;;5066929;28;20207;-35
2022/10/07 03:11:38;;;;;;;8.03;4.00;;;10.90;99.90;;;;;;5066528;28;20226;-35
2022/10/07 03:14:05;;;;;;;11.93;4.43;;;10.90;99.90;;;;;;5066701;28;20673;-35
2022/10/07 03:16:32;;;;;;;14.90;5.13;;;10.90;99.90;;;;;;5066454;28;20440;-35
2022/10/07 03:19:02;;;;;;;13.00;4.67;;;10.90;99.90;;;;;;5066688;28;20281;-35
2022/10/07 03:21:32;;;;;;;13.17;4.87;;;10.90;99.90;;;;;;5067064;28;20234;-35
2022/10/07 03:24:03;;;;;;;10.40;4.87;;;10.80;99.90;;;;;;5065761;28;20691;-35
2022/10/07 03:26:34;;;;;;;11.83;4.70;;;10.80;99.90;;;;;;5066896;28;20203;-35
2022/10/07 03:29:02;;;;;;;12.10;4.03;;;10.80;99.90;;;;;;5065915;28;20212;-35
2022/10/07 03:31:30;;;;;;;13.03;4.50;;;10.80;99.90;;;;;;5066109;28;20230;-35
2022/10/07 03:33:58;;;;;;;14.30;4.93;;;10.80;99.90;;;;;;5066972;28;20195;-35
2022/10/07 03:36:25;;;;;;;9.27;4.10;;;10.80;99.90;;;;;;5067093;28;20719;-35
2022/10/07 03:38:54;;;;;;;10.13;4.23;;;10.80;99.90;;;;;;5065774;28;20208;-35
2022/10/07 03:41:21;;;;;;;13.63;4.87;;;10.70;99.90;;;;;;5066258;28;20214;-35
2022/10/07 03:43:49;;;;;;;14.03;4.53;;;10.70;99.90;;;;;;5065913;28;20203;-35
2022/10/07 03:46:18;;;;;;;10.77;4.20;;;10.70;99.90;;;;;;5066383;28;20207;-35
2022/10/07 03:48:45;;;;;;;11.20;4.30;;;10.70;99.90;;;;;;5066157;28;20212;-35
2022/10/07 03:51:13;;;;;;;11.80;4.30;;;10.70;99.90;;;;;;5066050;28;20215;-35
2022/10/07 03:53:40;;;;;;;9.27;4.60;;;10.70;99.90;;;;;;5064505;28;20249;-35
2022/10/07 03:56:07;;;;;;;10.30;4.50;;;10.60;99.90;;;;;;5065925;28;20227;-36
2022/10/07 03:58:35;;;;;;;11.97;4.93;;;10.60;99.90;;;;;;5065528;28;20729;-35
2022/10/07 04:01:07;;;;;;;9.37;4.27;;;10.60;99.90;;;;;;5065560;28;20721;-36
2022/10/07 04:03:35;;;;;;;8.97;3.70;;;10.60;99.90;;;;;;5066130;28;20693;-36
2022/10/07 04:06:02;;;;;;;11.73;4.03;;;10.60;99.90;;;;;;5064084;28;20802;-34
2022/10/07 04:08:31;;;;;;;9.67;3.97;;;10.60;99.90;;;;;;5063653;28;20227;-36
2022/10/07 04:11:02;;;;;;;10.63;4.20;;;10.60;99.90;;;;;;5065007;28;20216;-35
2022/10/07 04:13:30;;;;;;;9.47;3.80;;;10.60;99.90;;;;;;5064094;28;20238;-36
2022/10/07 04:15:57;;;;;;;9.03;4.10;;;10.60;99.90;;;;;;5063027;28;20200;-36
2022/10/07 04:18:24;;;;;;;13.93;5.03;;;10.60;99.90;;;;;;5061738;28;20230;-35
2022/10/07 04:20:52;;;;;;;13.57;4.23;;;10.60;99.90;;;;;;5065816;28;20677;-36
2022/10/07 04:23:19;;;;;;;12.20;4.60;;;10.60;99.90;;;;;;5066011;28;20306;-36
2022/10/07 04:25:48;;;;;;;11.50;4.57;;;10.50;99.90;;;;;;5065817;28;20192;-36
2022/10/07 04:28:25;;;;;;;8.43;3.97;;;10.60;99.90;;;;;;5065618;28;20195;-40
2022/10/07 04:30:54;;;;;;;11.37;4.43;;;10.50;99.90;;;;;;5064151;28;20630;-36
2022/10/07 04:33:23;;;;;;;15.40;4.77;;;10.60;99.90;;;;;;5065798;28;20303;-36
2022/10/07 04:35:50;;;;;;;13.07;4.50;;;10.60;99.90;;;;;;5066167;28;20433;-36
2022/10/07 04:38:18;;;;;;;12.60;4.60;;;10.60;99.90;;;;;;5065744;28;20209;-37
2022/10/07 04:40:50;;;;;;;12.40;4.43;;;10.50;99.90;;;;;;5065691;28;20658;-36
2022/10/07 04:43:22;;;;;;;9.37;4.37;;;10.50;99.90;;;;;;5065380;28;20197;-36
2022/10/07 04:45:53;;;;;;;12.10;4.10;;;10.50;99.90;;;;;;5065346;28;20671;-36
2022/10/07 04:48:22;;;;;;;10.50;4.20;;;10.50;99.90;;;;;;5064790;28;20281;-36
2022/10/07 04:50:52;;;;;;;11.33;3.70;;;10.50;99.90;;;;;;5065778;28;20587;-34
2022/10/07 04:53:20;;;;;;;8.83;3.47;;;10.50;99.90;;;;;;5065770;28;20191;-34
2022/10/07 04:55:50;;;;;;;11.43;4.60;;;10.40;99.90;;;;;;5063828;28;20211;-35
2022/10/07 04:58:18;;;;;;;14.57;4.77;;;10.40;99.90;;;;;;5065533;28;20215;-35
2022/10/07 05:00:48;;;;;;;10.67;4.20;;;10.40;99.90;;;;;;5064152;28;20525;-36
2022/10/07 05:03:17;;;;;;;11.27;3.87;;;10.40;99.90;;;;;;5065362;28;20572;-34
2022/10/07 05:05:47;;;;;;;11.23;3.87;;;10.40;99.90;;;;;;5065243;28;20299;-35
2022/10/07 05:08:17;;;;;;;12.63;3.93;;;10.40;99.90;;;;;;5064188;28;20200;-34
2022/10/07 05:10:45;;;;;;;10.13;4.50;;;10.40;99.90;;;;;;5056267;28;20200;-35
2022/10/07 05:13:15;;;;;;;12.90;3.80;;;10.40;99.90;;;;;;5063396;28;20387;-36
2022/10/07 05:16:00;;;;;;;11.17;4.07;;;10.40;99.90;;;;;;5063963;28;20590;-36
2022/10/07 05:18:32;;;;;;;15.87;5.03;;;10.40;99.90;;;;;;5064096;28;20226;-35
2022/10/07 05:21:06;;;;;;;9.43;3.33;;;10.40;99.90;;;;;;5064010;28;20510;-35
2022/10/07 05:23:36;;;;;;;10.17;4.10;;;10.40;99.90;;;;;;5064221;28;20215;-35
2022/10/07 05:26:06;;;;;;;11.23;3.37;;;10.50;99.90;;;;;;5068813;28;20214;-36
2022/10/07 05:28:35;;;;;;;10.30;3.90;;;10.50;99.90;;;;;;5067170;28;20202;-35
2022/10/07 05:31:09;;;;;;;10.40;3.00;;;10.50;99.90;;;;;;5068366;28;20757;-36
2022/10/07 05:33:37;;;;;;;13.73;3.80;;;10.50;99.90;;;;;;5068275;28;20192;-36
2022/10/07 05:36:06;;;;;;;9.87;3.93;;;10.50;99.90;;;;;;5067119;28;20199;-35
2022/10/07 05:38:34;;;;;;;11.67;3.90;;;10.50;99.90;;;;;;5068570;28;20211;-35
2022/10/07 05:41:04;;;;;;;11.80;3.70;;;10.50;99.90;;;;;;5061232;28;20764;-35
2022/10/07 05:43:34;;;;;;;10.90;3.70;;;10.50;99.90;;;;;;5047911;28;20554;-35
2022/10/07 05:46:06;;;;;;;12.53;4.43;;;10.50;99.90;;;;;;5047883;28;20287;-35
2022/10/07 05:48:35;;;;;;;8.97;3.70;;;10.50;99.90;;;;;;5048319;28;20262;-36
2022/10/07 05:51:08;;;;;;;12.73;3.37;;;10.40;99.90;;;;;;5048478;28;20197;-36
2022/10/07 05:53:40;;;;;;;12.57;3.83;;;10.40;99.90;;;;;;5048383;28;20196;-35
2022/10/07 05:56:09;;;;;;;11.00;3.63;;;10.40;99.90;;;;;;5056340;28;20215;-35
2022/10/07 05:58:39;;;;;;;11.97;3.80;;;10.40;99.90;;;;;;5067813;28;20184;-35
2022/10/07 06:01:13;;;;;;;9.33;3.63;;;10.40;99.90;;;;;;5061264;28;20789;-35
2022/10/07 06:03:41;;;;;;;10.93;3.87;;;10.40;99.90;;;;;;5059939;28;20548;-35
2022/10/07 06:06:09;;;;;;;16.07;4.33;;;10.40;99.90;;;;;;5058068;28;20238;-35
2022/10/07 06:08:36;;;;;;;14.57;4.10;;;10.50;99.90;;;;;;5058993;28;20206;-35
2022/10/07 06:13:53;;;;;;;8.20;3.50;;;10.50;99.90;;;;;;5064892;28;20286;-35
2022/10/07 06:16:23;;;;;;;11.90;3.63;;;10.50;99.90;;;;;;5064083;28;20203;-36
2022/10/07 06:18:53;;;;;;;11.73;3.60;;;10.50;99.90;;;;;;5060735;28;20234;-36
2022/10/07 06:21:26;;;;;;;16.27;3.93;;;10.50;99.90;;;;;;5067456;28;20203;-36
2022/10/07 06:23:57;;;;;;;11.50;3.80;;;10.50;99.90;;;;;;5067096;28;20308;-35
2022/10/07 06:26:29;;;;;;;13.20;4.20;;;10.60;99.90;;;;;;5063040;28;20571;-36
2022/10/07 06:28:56;;;;;;;11.00;3.93;;;10.60;99.90;;;;;;5057896;28;20196;-35
2022/10/07 06:31:24;;;;;;;13.47;3.47;;;10.60;99.90;;;;;;5065625;28;20329;-36
2022/10/07 06:33:52;;;;;;;10.37;3.43;;;10.60;99.90;;;;;;5065814;28;20196;-36
2022/10/07 06:36:19;;;;;;;10.53;3.37;;;10.70;99.90;;;;;;5057371;28;20196;-36
2022/10/07 06:38:49;;;;;;;13.47;3.83;;;10.70;99.90;;;;;;5063087;28;20617;-36
2022/10/07 06:41:16;;;;;;;10.50;4.10;;;10.70;99.90;;;;;;5063804;28;20672;-36
2022/10/07 06:43:46;;;;;;;10.80;3.63;;;10.70;99.90;;;;;;5063733;28;20187;-34
2022/10/07 06:46:16;;;;;;;12.20;3.40;;;10.80;99.90;;;;;;5061405;28;20647;-34
2022/10/07 06:48:45;;;;;;;22.27;5.10;;;10.80;99.90;;;;;;5058505;28;20232;-34
2022/10/07 06:51:15;;;;;;;42.03;7.20;;;10.80;99.90;;;;;;5064646;28;20458;-36
2022/10/07 06:53:43;;;;;;;29.93;6.13;;;10.90;99.90;;;;;;5064143;28;20990;-36
2022/10/07 06:56:12;;;;;;;14.53;4.53;;;10.90;99.90;;;;;;5065144;28;20199;-34
2022/10/07 06:58:41;;;;;;;13.17;3.63;;;11.00;99.90;;;;;;5064587;28;20203;-35
2022/10/07 07:01:09;;;;;;;10.77;3.23;;;11.00;99.90;;;;;;5062704;28;20214;-36
2022/10/07 07:03:37;;;;;;;8.83;3.30;;;11.10;99.90;;;;;;5059045;28;20207;-33
2022/10/07 07:06:06;;;;;;;20.97;4.40;;;11.10;99.90;;;;;;5066987;28;20242;-33
2022/10/07 07:08:34;;;;;;;13.13;3.20;;;11.10;99.90;;;;;;5066362;28;20199;-34
2022/10/07 07:11:34;;;;;;;12.93;3.73;;;11.20;99.90;;;;;;5067160;28;20203;-34
2022/10/07 07:13:53;;;;;;;13.97;3.50;;;11.20;99.90;;;;;;5064007;28;20241;-35
2022/10/07 07:16:22;;;;;;;12.73;3.97;;;11.30;99.90;;;;;;5064068;28;20196;-33
2022/10/07 07:19:01;;;;;;;16.93;3.87;;;11.30;99.90;;;;;;5064167;28;20566;-35
2022/10/07 07:21:29;;;;;;;10.83;3.10;;;11.40;99.90;;;;;;5066185;28;20298;-34
2022/10/07 07:23:57;;;;;;;10.47;3.27;;;11.50;99.90;;;;;;5062998;28;20231;-34
2022/10/07 07:26:27;;;;;;;9.47;3.30;;;11.50;99.90;;;;;;5064569;28;20575;-36
2022/10/07 07:29:02;;;;;;;10.47;3.00;;;11.50;99.90;;;;;;5063413;28;20218;-36
2022/10/07 07:31:32;;;;;;;14.30;3.63;;;11.60;99.90;;;;;;5064546;28;20254;-36
2022/10/07 07:34:02;;;;;;;10.17;3.87;;;11.60;99.90;;;;;;5079116;28;20206;-37
2022/10/07 07:36:32;;;;;;;11.13;3.20;;;11.70;99.90;;;;;;5064879;28;20184;-37
2022/10/07 07:39:07;;;;;;;12.97;3.50;;;11.70;99.90;;;;;;5064590;28;20286;-37
2022/10/07 07:41:40;;;;;;;25.80;5.07;;;11.80;99.90;;;;;;5064217;28;20223;-36
2022/10/07 07:44:12;;;;;;;14.47;4.57;;;11.90;99.90;;;;;;5045312;28;20199;-38
2022/10/07 07:46:42;;;;;;;19.47;4.57;;;11.90;99.90;;;;;;5065145;28;20191;-36
2022/10/07 07:49:11;;;;;;;17.90;4.70;;;12.00;99.90;;;;;;5063877;28;20689;-35
2022/10/07 07:51:41;;;;;;;16.30;5.07;;;12.00;99.90;;;;;;5063423;28;20211;-37
2022/10/07 07:54:11;;;;;;;12.10;4.10;;;12.10;99.90;;;;;;5048902;28;20207;-37
2022/10/07 07:56:38;;;;;;;18.47;4.50;;;12.10;99.90;;;;;;5055434;28;20195;-36
2022/10/07 07:59:07;;;;;;;17.17;5.40;;;12.20;99.90;;;;;;5062191;28;20249;-36
2022/10/07 08:01:34;;;;;;;11.10;4.40;;;12.20;99.90;;;;;;5057373;28;20206;-36
2022/10/07 08:04:02;;;;;;;13.03;3.80;;;12.30;99.90;;;;;;5064197;28;20207;-35
2022/10/07 08:06:31;;;;;;;12.83;3.67;;;12.40;99.90;;;;;;5062304;28;20215;-36
2022/10/07 08:09:00;;;;;;;12.50;4.13;;;12.40;99.90;;;;;;5063186;28;20280;-36
2022/10/07 08:11:28;;;;;;;13.47;4.27;;;12.50;99.90;;;;;;5060389;28;20227;-35
2022/10/07 08:13:59;;;;;;;11.13;3.80;;;12.50;99.90;;;;;;5078285;28;20695;-36
2022/10/07 08:16:28;;;;;;;12.80;3.70;;;12.60;99.90;;;;;;5061775;28;20396;-36
2022/10/07 08:18:56;;;;;;;13.17;4.17;;;12.70;99.90;;;;;;5061992;28;20227;-36
2022/10/07 08:21:26;;;;;;;14.70;4.17;;;12.70;99.90;;;;;;5061417;28;20195;-35
2022/10/07 08:23:56;;;;;;;12.97;4.17;;;12.80;99.90;;;;;;5064878;28;20199;-37
2022/10/07 08:26:29;;;;;;;12.80;3.97;;;12.80;99.90;;;;;;5063371;28;20227;-35
2022/10/07 08:28:57;;;;;;;12.53;4.27;;;12.90;99.90;;;;;;5062064;28;20199;-35
2022/10/07 08:31:28;;;;;;;16.30;4.13;;;13.00;99.90;;;;;;5060327;28;20234;-35
2022/10/07 08:33:58;;;;;;;19.63;4.33;;;13.10;99.90;;;;;;5047938;28;20718;-35
2022/10/07 08:36:28;;;;;;;10.20;3.83;;;13.10;99.90;;;;;;5059762;28;20203;-35
2022/10/07 08:38:58;;;;;;;12.70;3.57;;;13.20;99.90;;;;;;5062836;28;20782;-35
2022/10/07 08:41:25;;;;;;;15.90;3.60;;;13.30;99.90;;;;;;5060514;28;20204;-36
2022/10/07 08:43:52;;;;;;;11.83;3.43;;;13.30;99.90;;;;;;5057167;28;20243;-35
2022/10/07 08:46:27;;;;;;;9.07;3.40;;;13.40;99.90;;;;;;5061134;28;20191;-35
2022/10/07 08:48:59;;;;;;;9.90;3.40;;;13.50;99.90;;;;;;5064225;28;20557;-35
2022/10/07 08:51:40;;;;;;;11.60;3.50;;;13.60;99.90;;;;;;5057895;28;20204;-35
2022/10/07 08:54:13;;;;;;;15.77;3.80;;;13.60;99.90;;;;;;5059621;28;20630;-36
2022/10/07 08:56:43;;;;;;;10.70;4.00;;;13.60;99.90;;;;;;5062029;28;20265;-35
2022/10/07 08:59:26;;;;;;;10.70;3.30;;;13.70;99.90;;;;;;5057255;28;20188;-35
2022/10/07 09:02:30;;;;;;;9.70;3.57;;;13.80;99.90;;;;;;5059185;28;20222;-36
2022/10/07 09:05:17;;;;;;;13.57;3.40;;;13.90;99.90;;;;;;5063831;28;20199;-35
2022/10/07 09:07:49;;;;;;;13.20;3.30;;;14.00;99.90;;;;;;5066692;28;20200;-35
2022/10/07 09:10:37;;;;;;;11.97;3.07;;;14.00;99.90;;;;;;5068775;28;20207;-35
2022/10/07 09:13:23;;;;;;;10.57;3.47;;;14.10;99.90;;;;;;5063564;28;20246;-35
2022/10/07 09:16:12;;;;;;;13.63;3.43;;;14.20;99.90;;;;;;5064487;28;20199;-35
2022/10/07 09:19:27;;;;;;;11.83;3.63;;;14.30;99.90;;;;;;5066800;28;20235;-35
2022/10/07 09:21:59;;;;;;;12.70;3.10;;;14.40;99.90;;;;;;5049133;28;20227;-35
2022/10/07 09:24:30;;;;;;;11.00;2.80;;;14.40;99.90;;;;;;5063055;28;21027;-37
2022/10/07 09:26:59;;;;;;;12.23;3.20;;;14.50;99.90;;;;;;5065772;28;20308;-35
2022/10/07 09:29:29;;;;;;;12.60;2.83;;;14.50;99.90;;;;;;5064900;28;20238;-35
2022/10/07 09:31:59;;;;;;;12.67;3.07;;;14.60;99.90;;;;;;5064613;28;20266;-34
2022/10/07 09:34:29;;;;;;;12.67;3.17;;;14.70;99.90;;;;;;5066688;28;20199;-36
2022/10/07 09:37:18;;;;;;;9.20;2.73;;;14.70;99.90;;;;;;5060518;28;20208;-36
2022/10/07 09:39:51;;;;;;;15.77;3.00;;;14.80;99.90;;;;;;5047994;28;20192;-34
2022/10/07 09:42:32;;;;;;;13.60;3.13;;;14.90;99.90;;;;;;5059718;28;20226;-36
2022/10/07 09:45:04;;;;;;;13.40;2.70;;;14.90;99.90;;;;;;5064801;28;20200;-36
2022/10/07 09:47:39;;;;;;;8.17;2.50;;;15.00;99.90;;;;;;5064098;28;20325;-35
2022/10/07 09:50:39;;;;;;;7.80;2.23;;;15.10;99.90;;;;;;5067603;28;20881;-36
2022/10/07 09:53:22;;;;;;;9.37;2.43;;;15.20;99.90;;;;;;5065728;28;20357;-35
2022/10/07 09:55:52;;;;;;;9.10;2.67;;;15.20;99.90;;;;;;5060707;28;20202;-35
2022/10/07 09:58:30;;;;;;;10.80;2.57;;;15.30;99.90;;;;;;5065750;28;20211;-34
2022/10/07 10:01:01;;;;;;;9.50;2.37;;;15.40;99.90;;;;;;5063484;28;20242;-36
2022/10/07 10:03:31;;;;;;;9.37;2.10;;;15.40;99.90;;;;;;5065791;28;20696;-36
2022/10/07 10:06:05;;;;;;;10.43;2.37;;;15.50;99.90;;;;;;5060869;28;20211;-35
2022/10/07 10:08:36;;;;;;;8.50;2.20;;;15.60;99.90;;;;;;5048998;28;20570;-36
2022/10/07 10:11:24;;;;;;;7.10;2.30;;;15.70;99.90;;;;;;5057354;28;20234;-35
2022/10/07 10:13:51;;;;;;;10.87;2.50;;;15.80;99.90;;;;;;5065421;28;20528;-35
2022/10/07 10:16:39;;;;;;;8.60;2.17;;;15.80;99.90;;;;;;5064343;28;20192;-36
2022/10/07 10:19:26;;;;;;;12.03;2.83;;;15.90;99.90;;;;;;5063691;28;20365;-37
2022/10/07 10:21:55;;;;;;;10.73;2.57;;;16.00;99.90;;;;;;5066366;28;20234;-35
2022/10/07 10:27:35;;;;;;;9.77;2.20;;;16.10;99.90;;;;;;5062777;28;20621;-36
2022/10/07 10:30:13;;;;;;;7.10;2.37;;;16.20;99.90;;;;;;5059922;28;20227;-38
2022/10/07 10:32:50;;;;;;;11.30;2.07;;;16.30;99.90;;;;;;5063620;28;20212;-34
2022/10/07 10:35:33;;;;;;;8.13;1.97;;;16.30;99.90;;;;;;5062858;28;20534;-34
2022/10/07 10:38:32;;;;;;;8.20;1.67;;;16.40;99.90;;;;;;5063971;28;20200;-34
2022/10/07 10:41:27;;;;;;;9.40;2.30;;;16.40;99.90;;;;;;5065002;28;20249;-34
2022/10/07 10:43:57;;;;;;;10.57;1.80;;;16.50;99.90;;;;;;5064870;28;20524;-34
2022/10/07 10:46:38;;;;;;;9.07;2.00;;;16.50;99.90;;;;;;5056601;28;20213;-34
2022/10/07 10:49:14;;;;;;;10.63;1.97;;;16.60;99.90;;;;;;5064607;28;20211;-34
2022/10/07 10:52:14;;;;;;;7.30;1.80;;;16.60;99.90;;;;;;5064096;28;20211;-34
2022/10/07 10:55:02;;;;;;;8.90;2.50;;;16.70;99.90;;;;;;5063515;28;20206;-35
2022/10/07 10:57:47;;;;;;;8.93;2.00;;;16.70;99.90;;;;;;5063521;28;20211;-34
2022/10/07 11:00:20;;;;;;;9.27;2.07;;;16.80;99.90;;;;;;5058316;28;20207;-34
2022/10/07 11:03:04;;;;;;;14.47;2.93;;;16.80;99.90;;;;;;5059075;28;20200;-35
2022/10/07 11:05:32;;;;;;;12.83;2.40;;;16.80;99.90;;;;;;5063127;28;20192;-42
2022/10/07 11:08:21;;;;;;;8.13;2.07;;;16.90;99.90;;;;;;5063770;28;20219;-35
2022/10/07 11:11:05;;;;;;;12.87;2.10;;;16.90;99.90;;;;;;5064007;28;20669;-35
2022/10/07 11:13:53;;;;;;;11.80;1.93;;;16.90;99.90;;;;;;5062543;28;20223;-34
2022/10/07 11:16:29;;;;;;;10.73;1.63;;;17.00;99.90;;;;;;5054219;28;20200;-34
2022/10/07 11:18:59;;;;;;;6.83;1.73;;;17.10;99.90;;;;;;5058291;28;20224;-33
2022/10/07 11:21:39;;;;;;;8.13;1.70;;;17.20;99.90;;;;;;5064566;28;20211;-34
2022/10/07 11:24:14;;;;;;;7.40;1.87;;;17.20;99.90;;;;;;5062350;28;20200;-34
2022/10/07 11:27:03;;;;;;;7.70;1.90;;;17.30;99.90;;;;;;5065370;28;20581;-35
2022/10/07 11:29:46;;;;;;;6.27;1.90;;;17.30;99.90;;;;;;5061935;28;20706;-34
2022/10/07 11:32:38;;;;;;;10.43;2.30;;;17.40;99.90;;;;;;5060619;28;20199;-34
2022/10/07 11:35:22;;;;;;;9.93;1.90;;;17.40;99.90;;;;;;5062167;28;20638;-34
2022/10/07 11:38:11;;;;;;;6.57;1.60;;;17.40;99.90;;;;;;5044598;28;20196;-35
2022/10/07 11:41:12;;;;;;;8.27;2.30;;;17.50;99.90;;;;;;5056511;28;20579;-33
2022/10/07 11:43:52;;;;;;;8.43;1.57;;;17.50;99.90;;;;;;5062733;28;20195;-33
2022/10/07 11:46:32;;;;;;;8.60;1.80;;;17.60;99.90;;;;;;5053142;28;20689;-33
2022/10/07 11:49:16;;;;;;;8.23;1.57;;;17.60;99.90;;;;;;5061870;28;20211;-32
2022/10/07 11:52:17;;;;;;;9.57;1.93;;;17.70;99.90;;;;;;5059434;28;20210;-33
2022/10/07 11:54:58;;;;;;;7.20;1.73;;;17.70;99.90;;;;;;5047061;28;20654;-33
2022/10/07 11:57:32;;;;;;;7.83;1.50;;;17.70;99.90;;;;;;5063050;28;20726;-34
2022/10/07 12:00:06;;;;;;;8.53;2.10;;;17.80;99.90;;;;;;5051450;28;20326;-33
2022/10/07 12:02:38;;;;;;;13.03;2.23;;;17.80;99.90;;;;;;5062137;28;20568;-34
2022/10/07 12:05:25;;;;;;;7.17;1.93;;;17.80;99.90;;;;;;5063605;28;20192;-32
2022/10/07 12:07:58;;;;;;;9.70;2.27;;;17.90;99.90;;;;;;5063584;28;20215;-33
2022/10/07 12:10:30;;;;;;;7.67;1.77;;;17.90;99.90;;;;;;5053202;28;20188;-33
2022/10/07 12:13:20;;;;;;;13.77;2.20;;;17.90;99.90;;;;;;5061000;28;20599;-32
2022/10/07 12:15:49;;;;;;;6.27;1.73;;;18.00;99.90;;;;;;5060274;28;20288;-32
2022/10/07 12:18:22;;;;;;;6.87;1.70;;;18.00;99.90;;;;;;5061766;28;20257;-32
2022/10/07 12:20:50;;;;;;;6.60;1.53;;;18.00;99.90;;;;;;5065258;28;20203;-33
2022/10/07 12:23:27;;;;;;;7.30;1.80;;;18.10;99.90;;;;;;5059784;28;20199;-33
2022/10/07 12:26:01;;;;;;;12.97;2.40;;;18.10;99.90;;;;;;5044175;28;20204;-33
2022/10/07 12:28:38;;;;;;;9.63;1.90;;;18.20;99.90;;;;;;5053034;28;20208;-33
2022/10/07 12:31:15;;;;;;;7.77;1.90;;;18.20;99.90;;;;;;5056274;28;20296;-33
2022/10/07 12:33:45;;;;;;;10.17;2.27;;;18.20;99.90;;;;;;5066499;28;20246;-33
2022/10/07 12:36:22;;;;;;;6.37;1.80;;;18.20;99.90;;;;;;5069645;28;20200;-32
2022/10/07 12:38:59;;;;;;;9.33;1.93;;;18.30;99.90;;;;;;5064567;28;20317;-33
2022/10/07 12:41:37;;;;;;;10.80;2.33;;;18.30;99.90;;;;;;5068106;28;20211;-32
2022/10/07 12:44:18;;;;;;;7.97;1.98;;;18.40;99.90;;;;;;5059921;28;20215;-33
2022/10/07 12:46:47;;;;;;;8.27;1.73;;;18.40;99.90;;;;;;5067745;28;20207;-32
2022/10/07 12:49:33;;;;;;;3.33;1.17;;;18.40;99.90;;;;;;5066689;28;20207;-33
2022/10/07 12:52:05;;;;;;;8.77;2.40;;;18.40;99.90;;;;;;5071319;28;20203;-32
2022/10/07 12:54:48;;;;;;;8.37;2.00;;;18.40;99.90;;;;;;5072091;28;20334;-32
2022/10/07 12:57:22;;;;;;;6.27;1.90;;;18.40;99.90;;;;;;5066583;28;20192;-32
2022/10/07 12:59:56;;;;;;;7.80;1.73;;;18.50;99.90;;;;;;5068967;28;20254;-33
2022/10/07 13:03:02;;;;;;;6.50;1.67;;;18.50;99.90;;;;;;5067004;28;20195;-32
2022/10/07 13:05:38;;;;;;;8.30;2.30;;;18.60;99.90;;;;;;5066042;28;20203;-32
2022/10/07 13:08:24;;;;;;;8.77;2.60;;;18.60;99.90;;;;;;5067760;28;20294;-32
2022/10/07 13:11:22;;;;;;;8.27;1.90;;;18.60;99.90;;;;;;5070408;28;20198;-32
2022/10/07 13:14:21;;;;;;;11.60;2.30;;;18.60;99.90;;;;;;5068337;28;20216;-32
2022/10/07 13:17:01;;;;;;;6.90;1.93;;;18.60;99.90;;;;;;5069197;28;20549;-33
2022/10/07 13:19:48;;;;;;;11.87;2.10;;;18.60;99.90;;;;;;5065252;28;20293;-33
2022/10/07 13:22:17;;;;;;;7.57;2.13;;;18.60;99.90;;;;;;5051634;28;20188;-32